createdAt,value
2023-03-22T00:01:30.890Z,7.26
2023-03-22T00:03:58.507Z,7.38
2023-03-22T00:06:26.574Z,7.36
2023-03-22T00:08:54.197Z,7.56
2023-03-22T00:11:24.345Z,7.51
2023-03-22T00:13:52.459Z,7.36
2023-03-22T00:16:20.505Z,7.34
2023-03-22T00:18:47.096Z,7.27
2023-03-22T00:21:15.699Z,7.32
2023-03-22T00:23:42.739Z,7.26
2023-03-22T00:26:10.918Z,7.32
2023-03-22T00:28:37.415Z,7.36
2023-03-22T00:31:05.876Z,7.37
2023-03-22T00:33:32.785Z,7.30
2023-03-22T00:36:05.888Z,7.30
2023-03-22T00:38:42.818Z,7.27
2023-03-22T00:41:16.124Z,7.40
2023-03-22T00:43:43.765Z,7.28
2023-03-22T00:46:12.563Z,7.25
2023-03-22T00:48:39.549Z,7.22
2023-03-22T00:51:07.141Z,7.14
2023-03-22T00:53:36.357Z,7.16
2023-03-22T00:56:04.724Z,7.18
2023-03-22T00:58:31.297Z,7.07
2023-03-22T01:00:58.064Z,7.16
2023-03-22T01:03:24.833Z,7.11
2023-03-22T01:05:55.928Z,7.14
2023-03-22T01:08:23.943Z,7.22
2023-03-22T01:10:51.222Z,7.21
2023-03-22T01:13:18.210Z,7.22
2023-03-22T01:15:45.035Z,7.26
2023-03-22T01:18:11.587Z,7.22
2023-03-22T01:20:38.508Z,7.21
2023-03-22T01:23:05.287Z,7.32
2023-03-22T01:25:32.417Z,7.28
2023-03-22T01:27:59.039Z,7.40
2023-03-22T01:30:25.925Z,7.38
2023-03-22T01:32:52.353Z,7.30
2023-03-22T01:35:19.245Z,7.28
2023-03-22T01:37:46.478Z,7.29
2023-03-22T01:40:14.754Z,7.28
2023-03-22T01:42:42.358Z,7.19
2023-03-22T01:45:28.891Z,7.20
2023-03-22T01:48:01.095Z,7.24
2023-03-22T01:50:30.542Z,7.20
2023-03-22T01:53:00.154Z,7.17
2023-03-22T01:55:28.417Z,7.01
2023-03-22T01:57:55.334Z,6.88
2023-03-22T02:00:22.315Z,6.79
2023-03-22T02:02:51.487Z,6.82
2023-03-22T02:05:22.104Z,6.81
2023-03-22T02:07:50.050Z,6.79
2023-03-22T02:10:22.880Z,6.78
2023-03-22T02:13:09.546Z,6.85
2023-03-22T02:15:46.988Z,6.82
2023-03-22T02:18:44.704Z,6.86
2023-03-22T02:21:32.628Z,6.93
2023-03-22T02:24:14.626Z,7.00
2023-03-22T02:27:04.981Z,7.09
2023-03-22T02:29:46.618Z,7.14
2023-03-22T02:32:51.778Z,7.06
2023-03-22T02:35:30.759Z,7.08
2023-03-22T02:37:57.139Z,7.01
2023-03-22T02:40:32.920Z,6.97
2023-03-22T02:43:23.773Z,6.99
2023-03-22T02:45:57.650Z,6.89
2023-03-22T02:48:31.871Z,6.83
2023-03-22T02:51:11.911Z,6.76
2023-03-22T02:53:46.890Z,6.73
2023-03-22T02:56:15.864Z,6.69
2023-03-22T02:58:46.718Z,6.69
2023-03-22T03:01:37.181Z,6.65
2023-03-22T03:04:09.684Z,6.64
2023-03-22T03:06:47.447Z,6.53
2023-03-22T03:09:18.013Z,6.59
2023-03-22T03:11:51.761Z,6.60
2023-03-22T03:14:27.996Z,6.64
2023-03-22T03:17:20.549Z,6.71
2023-03-22T03:20:19.384Z,6.74
2023-03-22T03:23:15.711Z,6.78
2023-03-22T03:26:14.642Z,6.74
2023-03-22T03:29:02.947Z,6.79
2023-03-22T03:31:34.871Z,6.85
2023-03-22T03:34:18.266Z,6.83
2023-03-22T03:36:54.480Z,6.86
2023-03-22T03:39:24.486Z,6.91
2023-03-22T03:41:53.154Z,6.86
2023-03-22T03:44:20.973Z,6.75
2023-03-22T03:46:48.210Z,6.74
2023-03-22T03:49:16.929Z,6.65
2023-03-22T03:51:54.583Z,6.64
2023-03-22T03:54:22.065Z,6.59
2023-03-22T03:56:49.381Z,6.66
2023-03-22T03:59:16.957Z,6.66
2023-03-22T04:01:52.411Z,6.73
2023-03-22T04:04:26.584Z,6.72
2023-03-22T04:06:57.450Z,6.71
2023-03-22T04:09:27.509Z,6.66
2023-03-22T04:11:55.885Z,6.68
2023-03-22T04:14:23.821Z,6.73
2023-03-22T04:16:52.427Z,6.80
2023-03-22T04:19:19.586Z,6.84
2023-03-22T04:21:46.220Z,6.75
2023-03-22T04:24:13.184Z,6.84
2023-03-22T04:26:39.777Z,6.76
2023-03-22T04:29:06.305Z,6.71
2023-03-22T04:31:34.072Z,6.83
2023-03-22T04:34:05.388Z,6.78
2023-03-22T04:36:36.159Z,6.76
2023-03-22T04:39:06.159Z,6.80
2023-03-22T04:41:33.950Z,6.73
2023-03-22T04:44:03.672Z,6.78
2023-03-22T04:46:31.768Z,6.73
2023-03-22T04:48:59.100Z,6.70
2023-03-22T04:51:26.382Z,6.61
2023-03-22T04:53:53.760Z,6.55
2023-03-22T04:56:20.715Z,6.51
2023-03-22T04:58:48.261Z,6.51
2023-03-22T05:01:18.108Z,6.49
2023-03-22T05:03:47.253Z,6.50
2023-03-22T05:06:14.545Z,6.59
2023-03-22T05:08:41.179Z,6.52
2023-03-22T05:11:15.648Z,6.49
2023-03-22T05:13:42.297Z,6.47
2023-03-22T05:16:10.029Z,6.42
2023-03-22T05:18:42.202Z,6.44
2023-03-22T05:21:15.564Z,6.45
2023-03-22T05:23:43.360Z,6.48
2023-03-22T05:26:10.900Z,6.40
2023-03-22T05:28:38.516Z,6.42
2023-03-22T05:31:05.893Z,6.40
2023-03-22T05:33:35.012Z,6.47
2023-03-22T05:36:01.809Z,6.42
2023-03-22T05:38:31.610Z,6.49
2023-03-22T05:40:58.068Z,6.53
2023-03-22T05:43:24.659Z,6.65
2023-03-22T05:45:51.220Z,6.62
2023-03-22T05:48:17.997Z,6.75
2023-03-22T05:50:44.755Z,6.92
2023-03-22T05:53:11.828Z,6.93
2023-03-22T05:55:38.775Z,6.93
2023-03-22T05:58:05.411Z,6.95
2023-03-22T06:00:32.387Z,6.95
2023-03-22T06:03:03.448Z,6.98
2023-03-22T06:05:32.167Z,6.99
2023-03-22T06:07:59.053Z,7.03
2023-03-22T06:10:28.741Z,7.07
2023-03-22T06:12:55.557Z,7.08
2023-03-22T06:15:22.196Z,7.21
2023-03-22T06:17:49.069Z,7.32
2023-03-22T06:20:16.908Z,7.48
2023-03-22T06:22:43.385Z,7.70
2023-03-22T06:25:11.219Z,7.86
2023-03-22T06:27:38.103Z,7.92
2023-03-22T06:30:05.885Z,8.14
2023-03-22T06:32:32.435Z,8.25
2023-03-22T06:34:58.872Z,8.33
2023-03-22T06:37:26.766Z,8.49
2023-03-22T06:39:53.227Z,8.58
2023-03-22T06:42:19.780Z,8.58
2023-03-22T06:44:46.745Z,8.61
2023-03-22T06:47:13.441Z,8.62
2023-03-22T06:49:40.562Z,8.74
2023-03-22T06:52:07.341Z,8.75
2023-03-22T06:54:34.263Z,8.82
2023-03-22T06:57:00.759Z,8.93
2023-03-22T06:59:27.714Z,8.96
2023-03-22T07:01:54.294Z,8.97
2023-03-22T07:04:21.058Z,9.04
2023-03-22T07:06:48.159Z,8.99
2023-03-22T07:09:14.546Z,9.05
2023-03-22T07:11:41.587Z,9.14
2023-03-22T07:14:08.142Z,9.25
2023-03-22T07:16:34.684Z,9.29
2023-03-22T07:19:01.791Z,9.36
2023-03-22T07:21:28.573Z,9.41
2023-03-22T07:23:55.491Z,9.46
2023-03-22T07:26:22.044Z,9.57
2023-03-22T07:28:48.804Z,9.67
2023-03-22T07:31:16.069Z,9.65
2023-03-22T07:33:42.478Z,9.67
2023-03-22T07:36:10.231Z,9.73
2023-03-22T07:38:38.039Z,9.85
2023-03-22T07:41:04.788Z,9.89
2023-03-22T07:43:32.186Z,9.97
2023-03-22T07:45:59.352Z,10.10
2023-03-22T07:48:25.874Z,10.16
2023-03-22T07:50:56.249Z,10.30
2023-03-22T07:53:22.674Z,10.48
2023-03-22T07:55:49.571Z,10.58
2023-03-22T07:58:16.431Z,10.62
2023-03-22T08:00:42.904Z,10.61
2023-03-22T08:03:12.680Z,10.62
2023-03-22T08:05:43.450Z,10.53
2023-03-22T08:08:10.757Z,10.59
2023-03-22T08:10:37.727Z,10.65
2023-03-22T08:13:04.309Z,10.65
2023-03-22T08:15:31.071Z,10.74
2023-03-22T08:17:58.134Z,10.83
2023-03-22T08:20:27.150Z,10.94
2023-03-22T08:22:54.608Z,10.94
2023-03-22T08:25:22.023Z,10.93
2023-03-22T08:27:48.436Z,10.98
2023-03-22T08:30:15.579Z,10.96
2023-03-22T08:32:42.040Z,10.80
2023-03-22T08:35:09.176Z,10.82
2023-03-22T08:37:36.201Z,10.72
2023-03-22T08:40:04.829Z,10.71
2023-03-22T08:42:31.868Z,10.65
2023-03-22T08:44:58.370Z,10.66
2023-03-22T08:47:25.222Z,10.72
2023-03-22T08:49:51.658Z,10.92
2023-03-22T08:52:18.678Z,11.07
2023-03-22T08:54:45.220Z,11.19
2023-03-22T08:57:11.857Z,11.47
2023-03-22T08:59:38.519Z,11.58
2023-03-22T09:02:05.660Z,11.61
2023-03-22T09:04:32.377Z,11.64
2023-03-22T09:06:58.823Z,11.49
2023-03-22T09:09:25.819Z,11.45
2023-03-22T09:11:52.251Z,11.49
2023-03-22T09:14:18.764Z,11.53
2023-03-22T09:16:45.724Z,11.67
2023-03-22T09:19:12.313Z,11.80
2023-03-22T09:21:38.695Z,11.93
2023-03-22T09:24:05.816Z,12.01
2023-03-22T09:26:32.824Z,12.04
2023-03-22T09:28:59.454Z,12.30
2023-03-22T09:31:26.075Z,12.51
2023-03-22T09:33:52.481Z,12.69
2023-03-22T09:36:19.697Z,12.89
2023-03-22T09:38:46.603Z,13.14
2023-03-22T09:41:22.778Z,13.26
2023-03-22T09:43:53.576Z,13.28
2023-03-22T09:46:29.128Z,13.42
2023-03-22T09:48:58.024Z,13.47
2023-03-22T09:51:40.797Z,13.53
2023-03-22T09:54:18.667Z,13.63
2023-03-22T09:56:51.483Z,13.52
2023-03-22T09:59:27.986Z,13.52
2023-03-22T10:02:04.909Z,13.47
2023-03-22T10:04:44.029Z,13.59
2023-03-22T10:07:37.266Z,13.37
2023-03-22T10:10:09.471Z,13.44
2023-03-22T10:12:54.725Z,13.63
2023-03-22T10:15:28.652Z,13.72
2023-03-22T10:17:57.709Z,13.73
2023-03-22T10:20:29.641Z,13.82
2023-03-22T10:22:59.790Z,13.70
2023-03-22T10:25:35.752Z,13.68
2023-03-22T10:28:02.536Z,13.51
2023-03-22T10:30:40.723Z,13.60
2023-03-22T10:33:27.372Z,13.62
2023-03-22T10:35:55.709Z,13.63
2023-03-22T10:38:26.343Z,13.77
2023-03-22T10:40:55.912Z,14.02
2023-03-22T10:43:31.707Z,14.15
2023-03-22T10:46:03.072Z,13.91
2023-03-22T10:48:40.984Z,13.83
2023-03-22T10:51:08.393Z,13.85
2023-03-22T10:53:39.857Z,13.90
2023-03-22T10:56:12.685Z,14.09
2023-03-22T10:58:39.139Z,14.33
2023-03-22T11:01:11.573Z,14.57
2023-03-22T11:03:41.863Z,14.59
2023-03-22T11:06:15.945Z,14.57
2023-03-22T11:08:45.280Z,14.36
2023-03-22T11:11:31.232Z,14.21
2023-03-22T11:14:15.931Z,14.32
2023-03-22T11:16:50.803Z,14.57
2023-03-22T11:19:26.476Z,14.78
2023-03-22T11:21:55.499Z,15.02
2023-03-22T11:24:26.374Z,15.22
2023-03-22T11:27:03.604Z,14.99
2023-03-22T11:29:40.835Z,15.12
2023-03-22T11:32:19.546Z,15.00
2023-03-22T11:34:46.459Z,14.99
2023-03-22T11:37:18.237Z,15.03
2023-03-22T11:39:50.727Z,14.93
2023-03-22T11:42:27.120Z,14.96
2023-03-22T11:44:56.124Z,14.95
2023-03-22T11:47:27.089Z,14.75
2023-03-22T11:49:57.213Z,14.68
2023-03-22T11:52:27.424Z,14.85
2023-03-22T11:54:56.200Z,14.96
2023-03-22T11:57:27.658Z,14.88
2023-03-22T12:00:12.093Z,15.03
2023-03-22T12:02:46.173Z,15.11
2023-03-22T12:05:20.610Z,15.16
2023-03-22T12:07:53.920Z,15.19
2023-03-22T12:10:29.100Z,15.13
2023-03-22T12:13:04.705Z,15.05
2023-03-22T12:15:42.354Z,14.99
2023-03-22T12:18:23.336Z,15.03
2023-03-22T12:21:01.017Z,14.85
2023-03-22T12:23:30.518Z,14.68
2023-03-22T12:26:00.554Z,14.60
2023-03-22T12:28:47.058Z,14.55
2023-03-22T12:31:21.799Z,14.50
2023-03-22T12:33:52.552Z,14.61
2023-03-22T12:36:34.927Z,14.59
2023-03-22T12:39:03.525Z,14.54
2023-03-22T12:41:39.291Z,14.48
2023-03-22T12:44:23.765Z,14.45
2023-03-22T12:47:17.047Z,14.45
2023-03-22T12:49:47.038Z,14.41
2023-03-22T12:52:19.684Z,14.21
2023-03-22T12:54:48.464Z,14.04
2023-03-22T12:57:17.056Z,13.98
2023-03-22T12:59:48.874Z,13.85
2023-03-22T13:02:17.642Z,13.71
2023-03-22T13:04:44.153Z,13.53
2023-03-22T13:07:13.572Z,13.42
2023-03-22T13:09:49.544Z,13.30
2023-03-22T13:12:18.734Z,13.26
2023-03-22T13:14:58.937Z,13.39
2023-03-22T13:17:25.878Z,13.43
2023-03-22T13:19:58.570Z,13.52
2023-03-22T13:22:38.084Z,13.52
2023-03-22T13:25:10.810Z,13.56
2023-03-22T13:27:39.301Z,13.42
2023-03-22T13:30:14.531Z,13.41
2023-03-22T13:33:09.744Z,13.35
2023-03-22T13:35:46.649Z,13.28
2023-03-22T13:38:33.297Z,13.21
2023-03-22T13:41:09.257Z,13.16
2023-03-22T13:43:46.998Z,13.02
2023-03-22T13:46:16.514Z,12.92
2023-03-22T13:48:52.266Z,13.00
2023-03-22T13:51:22.183Z,12.98
2023-03-22T13:54:05.162Z,12.97
2023-03-22T13:56:47.836Z,12.94
2023-03-22T13:59:23.124Z,12.99
2023-03-22T14:01:53.121Z,13.04
2023-03-22T14:04:29.153Z,13.19
2023-03-22T14:06:59.786Z,13.18
2023-03-22T14:09:33.160Z,13.18
2023-03-22T14:12:18.064Z,13.21
2023-03-22T14:14:48.777Z,13.11
2023-03-22T14:17:39.383Z,13.13
2023-03-22T14:20:10.905Z,13.12
